Applegate, Oregon
Current Conditions -  °F | °C
As of 1:53 PM on Wednesday 22 Oct 2014 (Local Time) from KMFR Reporting Station
Overcast Overcast  
Wind Chill: 67°   Ceiling: 5500
Heat Index: 67°   Visibility: 10mi
Dew Point: 48°   Wind: 8mph
Humidity: 51%   Direction: 180°S
Pressure: 29.88"   Gusts: NA
Location:  42.1499°N, 123.043°W
Report Text: KMFR 222053Z 18007KT 10SM OVC055 19/09 A2988 RMK AO2 SLP113 T01940089 56029
Loading
Personal Weather Stations






























Interactive Weather Map
Tropical Storm Tracking
New forecast layout! Learn more

10-Day Weather Forecast

Advertisements
Track Severe Weather on mobile